Time;durP1;ratioP1;P1;durP2;ratioP2;P2;SDS_P1;SDS_P2;PMS_P1;PMS_P2;Temp;Humidity;BMP_temperature;BMP_pressure;BME280_temperature;BME280_humidity;BME280_pressure;Samples;Min_cycle;Max_cycle;Signal;HPM_P1;HPM_P2
2023/09/30 00:01:18;;;;;;;2.15;2.05;;;12.20;99.90;;;;;;5071992;28;20054;-89
2023/09/30 00:03:44;;;;;;;2.05;1.95;;;12.50;99.90;;;;;;5067666;28;20042;-88
2023/09/30 00:06:10;;;;;;;1.85;1.75;;;12.40;99.90;;;;;;5084393;28;20067;-90
2023/09/30 00:08:45;;;;;;;1.98;1.88;;;12.30;99.90;;;;;;5073150;28;20067;-89
2023/09/30 00:11:11;;;;;;;1.85;1.75;;;12.30;99.90;;;;;;5086548;28;20549;-84
2023/09/30 00:13:37;;;;;;;1.98;1.88;;;12.50;99.90;;;;;;5082941;28;20040;-89
2023/09/30 00:16:03;;;;;;;2.10;2.00;;;12.50;99.90;;;;;;5062244;28;20066;-87
2023/09/30 00:18:29;;;;;;;1.88;1.77;;;12.20;99.90;;;;;;5092482;28;20397;-89
2023/09/30 00:20:58;;;;;;;1.85;1.75;;;12.30;99.90;;;;;;5067185;28;20119;-89
2023/09/30 00:23:24;;;;;;;1.83;1.73;;;12.40;99.90;;;;;;5088847;28;20036;-88
2023/09/30 00:25:50;;;;;;;1.73;1.63;;;12.40;99.90;;;;;;5078450;27;20074;-88
2023/09/30 00:28:16;;;;;;;1.65;1.55;;;12.40;99.90;;;;;;5067750;28;20385;-85
2023/09/30 00:30:41;;;;;;;1.63;1.52;;;12.30;99.90;;;;;;5081548;28;20089;-91
2023/09/30 00:33:07;;;;;;;1.67;1.58;;;12.40;99.90;;;;;;5062028;28;20405;-88
2023/09/30 00:35:37;;;;;;;1.65;1.55;;;12.40;99.90;;;;;;5075718;28;20740;-89
2023/09/30 00:38:10;;;;;;;1.67;1.58;;;12.20;99.90;;;;;;5067507;28;20547;-91
2023/09/30 00:40:36;;;;;;;1.63;1.52;;;12.20;99.90;;;;;;5063971;27;20066;-89
2023/09/30 00:43:02;;;;;;;1.70;1.60;;;12.40;99.90;;;;;;5064769;28;20476;-89
2023/09/30 00:45:29;;;;;;;1.65;1.55;;;12.20;99.90;;;;;;5065693;28;20046;-90
2023/09/30 00:47:55;;;;;;;1.70;1.60;;;12.20;99.90;;;;;;5098986;27;20043;-89
2023/09/30 00:50:21;;;;;;;1.60;1.50;;;12.30;99.90;;;;;;5083800;27;20050;-90
2023/09/30 00:52:48;;;;;;;1.60;1.50;;;12.30;99.90;;;;;;5088608;27;20043;-89
2023/09/30 00:55:15;;;;;;;1.55;1.45;;;12.20;99.90;;;;;;5090710;28;20048;-87
2023/09/30 00:57:43;;;;;;;1.58;1.48;;;12.20;99.90;;;;;;5081992;27;20039;-89
2023/09/30 01:00:11;;;;;;;1.63;1.52;;;12.40;99.90;;;;;;5101865;27;20089;-88
2023/09/30 01:02:40;;;;;;;1.50;1.40;;;12.30;99.90;;;;;;5080479;27;20044;-88
2023/09/30 01:05:09;;;;;;;1.55;1.45;;;12.60;99.90;;;;;;5072199;28;20046;-88
2023/09/30 01:07:35;;;;;;;1.52;1.42;;;12.30;99.90;;;;;;5080348;27;20536;-88
2023/09/30 01:10:03;;;;;;;1.55;1.45;;;12.50;99.90;;;;;;5083140;27;20130;-88
2023/09/30 01:12:29;;;;;;;1.60;1.50;;;12.50;99.90;;;;;;5106298;27;20048;-88
2023/09/30 01:14:59;;;;;;;1.67;1.58;;;12.50;99.90;;;;;;5092880;27;20043;-86
2023/09/30 01:17:26;;;;;;;1.63;1.52;;;12.60;99.90;;;;;;5076573;27;20050;-89
2023/09/30 01:19:52;;;;;;;1.55;1.45;;;12.40;99.90;;;;;;5093748;27;20047;-91
2023/09/30 01:22:18;;;;;;;1.30;1.30;;;12.40;99.90;;;;;;5086282;27;20088;-90
2023/09/30 01:24:44;;;;;;;1.67;1.58;;;12.50;99.90;;;;;;5097395;28;20109;-91
2023/09/30 01:27:11;;;;;;;1.55;1.45;;;12.30;99.90;;;;;;5085923;28;20722;-89
2023/09/30 01:29:40;;;;;;;1.55;1.45;;;12.60;99.90;;;;;;5089180;28;20039;-92
2023/09/30 01:32:09;;;;;;;1.60;1.50;;;12.40;99.90;;;;;;5093956;28;20050;-92
2023/09/30 01:34:35;;;;;;;1.75;1.65;;;12.40;99.90;;;;;;5083144;28;20062;-90
2023/09/30 01:37:02;;;;;;;1.73;1.63;;;12.30;99.90;;;;;;5099640;27;20043;-88
2023/09/30 01:39:27;;;;;;;1.55;1.45;;;12.60;99.90;;;;;;5103364;27;20032;-88
2023/09/30 01:41:53;;;;;;;1.60;1.50;;;12.30;99.90;;;;;;5101931;27;20048;-89
2023/09/30 01:44:19;;;;;;;1.80;1.70;;;12.60;99.90;;;;;;5084930;28;20059;-87
2023/09/30 01:46:45;;;;;;;1.75;1.65;;;12.40;99.90;;;;;;5095628;27;20196;-89
2023/09/30 01:49:11;;;;;;;1.90;1.80;;;12.70;99.90;;;;;;5076331;28;20968;-88
2023/09/30 01:51:37;;;;;;;1.83;1.73;;;12.60;99.90;;;;;;5081239;27;20186;-89
2023/09/30 01:54:03;;;;;;;1.83;1.73;;;12.40;99.90;;;;;;5097436;27;20043;-88
2023/09/30 01:56:30;;;;;;;1.83;1.73;;;12.40;99.90;;;;;;5076298;28;20429;-90
2023/09/30 01:58:56;;;;;;;1.95;1.85;;;12.60;99.90;;;;;;5076706;27;20057;-90
2023/09/30 02:01:22;;;;;;;1.85;1.75;;;12.50;99.90;;;;;;5079641;28;20039;-88
2023/09/30 02:03:48;;;;;;;1.85;1.75;;;12.50;99.90;;;;;;5084664;28;20047;-89
2023/09/30 02:06:13;;;;;;;2.00;1.90;;;12.40;99.90;;;;;;5085224;28;20051;-88
2023/09/30 02:08:39;;;;;;;1.75;1.65;;;12.50;99.90;;;;;;5080962;28;20040;-90
2023/09/30 02:11:05;;;;;;;1.98;1.88;;;12.30;99.90;;;;;;5085786;28;20051;-89
2023/09/30 02:13:37;;;;;;;1.85;1.75;;;12.50;99.90;;;;;;5105127;28;20067;-89
2023/09/30 02:16:03;;;;;;;1.90;1.80;;;12.30;99.90;;;;;;5077714;28;20044;-90
2023/09/30 02:18:32;;;;;;;1.85;1.75;;;12.50;99.90;;;;;;5084942;28;20051;-88
2023/09/30 02:20:59;;;;;;;1.85;1.75;;;12.30;99.90;;;;;;5100406;28;20051;-90
2023/09/30 02:23:25;;;;;;;1.92;1.83;;;12.30;99.90;;;;;;5082072;28;20481;-89
2023/09/30 02:25:51;;;;;;;1.90;1.80;;;12.30;99.90;;;;;;5085004;28;20063;-88
2023/09/30 02:28:16;;;;;;;1.88;1.77;;;12.40;99.90;;;;;;5078749;28;20046;-84
2023/09/30 02:30:42;;;;;;;1.70;1.60;;;12.30;99.90;;;;;;5082110;28;20047;-88
2023/09/30 02:33:08;;;;;;;1.85;1.75;;;12.30;99.90;;;;;;5085454;28;20058;-88
2023/09/30 02:35:33;;;;;;;1.85;1.75;;;12.40;99.90;;;;;;5077885;28;20492;-88
2023/09/30 02:38:00;;;;;;;1.80;1.70;;;12.50;99.90;;;;;;5104333;28;20044;-87
2023/09/30 02:40:26;;;;;;;1.70;1.60;;;12.40;99.90;;;;;;5079352;28;20100;-89
2023/09/30 02:42:52;;;;;;;2.00;1.90;;;12.30;99.90;;;;;;5088096;27;20047;-91
2023/09/30 02:45:17;;;;;;;2.17;2.08;;;12.40;99.90;;;;;;5098859;27;20042;-91
2023/09/30 02:47:44;;;;;;;2.03;1.92;;;12.30;99.90;;;;;;5100702;27;20130;-90
2023/09/30 02:50:16;;;;;;;1.90;1.80;;;12.40;99.90;;;;;;5089785;27;20047;-91
2023/09/30 02:52:42;;;;;;;2.00;1.90;;;12.50;99.90;;;;;;5087921;27;20049;-89
2023/09/30 02:55:11;;;;;;;2.00;1.90;;;12.50;99.90;;;;;;5087538;28;20043;-89
2023/09/30 02:57:38;;;;;;;1.95;1.85;;;12.30;99.90;;;;;;5086049;27;20059;-90
2023/09/30 03:00:38;;;;;;;2.00;1.90;;;12.40;99.90;;;;;;5083254;28;20044;-87
2023/09/30 03:02:57;;;;;;;2.10;2.00;;;12.50;99.90;;;;;;5102395;27;20132;-88
2023/09/30 03:05:24;;;;;;;2.05;1.95;;;12.30;99.90;;;;;;5108496;27;20077;-92
2023/09/30 03:07:53;;;;;;;2.22;2.13;;;12.40;99.90;;;;;;5091878;28;20046;-91
2023/09/30 03:10:23;;;;;;;2.38;2.28;;;12.40;99.90;;;;;;5092012;27;20063;-89
2023/09/30 03:13:01;;;;;;;2.38;2.28;;;12.30;99.90;;;;;;5090829;27;20035;-88
2023/09/30 03:15:28;;;;;;;2.42;2.33;;;12.40;99.90;;;;;;5082895;27;20997;-87
2023/09/30 03:17:55;;;;;;;2.35;2.25;;;12.50;99.90;;;;;;5083340;28;20077;-89
2023/09/30 03:20:21;;;;;;;2.20;2.10;;;12.40;99.90;;;;;;5094519;27;20092;-89
2023/09/30 03:22:47;;;;;;;2.15;2.05;;;12.20;99.90;;;;;;5099999;27;20507;-90
2023/09/30 03:25:17;;;;;;;2.40;2.30;;;12.40;99.90;;;;;;5091399;28;20047;-90
2023/09/30 03:27:43;;;;;;;2.30;2.20;;;12.40;99.90;;;;;;5097387;28;20051;-87
2023/09/30 03:30:11;;;;;;;2.30;2.20;;;12.10;99.90;;;;;;5104207;27;20057;-86
2023/09/30 03:32:38;;;;;;;2.40;2.30;;;12.30;99.90;;;;;;5083391;27;20043;-88
2023/09/30 03:35:10;;;;;;;2.40;2.30;;;12.10;99.90;;;;;;5110436;27;20043;-88
2023/09/30 03:37:37;;;;;;;2.40;2.30;;;12.40;99.90;;;;;;5077094;28;20047;-89
2023/09/30 03:40:13;;;;;;;2.30;2.20;;;12.20;99.90;;;;;;5087918;28;20451;-90
2023/09/30 03:42:40;;;;;;;2.33;2.22;;;12.30;99.90;;;;;;5099310;27;20048;-88
2023/09/30 03:45:09;;;;;;;2.28;2.17;;;12.20;99.90;;;;;;5085769;28;20055;-89
2023/09/30 03:47:36;;;;;;;2.30;2.20;;;12.00;99.90;;;;;;5090438;27;20054;-89
2023/09/30 03:50:03;;;;;;;2.33;2.22;;;11.90;99.90;;;;;;5093593;27;20039;-88
2023/09/30 03:52:29;;;;;;;2.38;2.28;;;12.10;99.90;;;;;;5087027;27;20040;-90
2023/09/30 03:54:55;;;;;;;2.38;2.28;;;12.10;99.90;;;;;;5097680;27;20036;-89
2023/09/30 03:57:23;;;;;;;2.25;2.15;;;12.10;99.90;;;;;;5108513;27;20039;-89
2023/09/30 03:59:49;;;;;;;2.22;2.13;;;12.00;99.90;;;;;;5084702;27;20519;-90
2023/09/30 04:02:18;;;;;;;2.38;2.28;;;11.80;99.90;;;;;;5083420;28;20519;-93
2023/09/30 04:04:46;;;;;;;2.50;2.40;;;11.90;99.90;;;;;;5083054;27;20113;-88
2023/09/30 04:07:12;;;;;;;2.30;2.20;;;11.90;99.90;;;;;;5088843;27;20112;-89
2023/09/30 04:09:38;;;;;;;2.85;2.65;;;12.10;99.90;;;;;;5106998;27;20047;-90
2023/09/30 04:12:04;;;;;;;2.30;2.20;;;12.00;99.90;;;;;;5084910;27;20066;-91
2023/09/30 04:14:30;;;;;;;2.58;2.47;;;12.10;99.90;;;;;;5093622;27;20043;-88
2023/09/30 04:16:58;;;;;;;2.85;2.65;;;12.00;99.90;;;;;;5097500;27;20550;-90
2023/09/30 04:19:24;;;;;;;2.33;2.22;;;12.20;99.90;;;;;;5093436;27;20047;-87
2023/09/30 04:21:50;;;;;;;2.20;2.10;;;12.20;99.90;;;;;;5104197;27;20046;-89
2023/09/30 04:24:15;;;;;;;2.65;2.53;;;12.00;99.90;;;;;;5084387;27;20104;-88
2023/09/30 04:26:41;;;;;;;2.40;2.30;;;12.00;99.90;;;;;;5086430;27;20476;-88
2023/09/30 04:29:10;;;;;;;2.58;2.47;;;12.10;99.90;;;;;;5107863;27;20051;-90
2023/09/30 04:31:43;;;;;;;2.40;2.30;;;12.10;99.90;;;;;;5095409;27;20092;-90
2023/09/30 04:34:09;;;;;;;2.72;2.58;;;12.30;99.90;;;;;;5110204;27;20047;-89
2023/09/30 04:36:35;;;;;;;2.50;2.40;;;12.00;99.90;;;;;;5092723;27;20561;-89
2023/09/30 04:39:01;;;;;;;2.50;2.40;;;12.10;99.90;;;;;;5083660;28;20039;-89
2023/09/30 04:41:27;;;;;;;2.58;2.47;;;12.10;99.90;;;;;;5086686;28;20043;-87
2023/09/30 04:43:52;;;;;;;2.40;2.30;;;12.30;99.90;;;;;;5105456;27;20044;-88
2023/09/30 04:46:23;;;;;;;2.33;2.22;;;12.30;99.90;;;;;;5091628;27;20165;-91
2023/09/30 04:48:51;;;;;;;2.40;2.30;;;12.30;99.90;;;;;;5085984;27;20372;-87
2023/09/30 04:51:18;;;;;;;2.60;2.50;;;12.10;99.90;;;;;;5080984;27;20059;-88
2023/09/30 04:53:47;;;;;;;2.58;2.47;;;12.20;99.90;;;;;;5094389;27;20039;-90
2023/09/30 04:56:13;;;;;;;2.47;2.38;;;12.40;99.90;;;;;;5097050;27;20051;-89
2023/09/30 04:58:39;;;;;;;2.63;2.53;;;12.20;99.90;;;;;;5099035;27;20400;-87
2023/09/30 05:01:08;;;;;;;2.40;2.30;;;12.20;99.90;;;;;;5090474;27;20035;-90
2023/09/30 05:03:35;;;;;;;2.60;2.50;;;12.20;99.90;;;;;;5092481;28;20377;-88
2023/09/30 05:06:01;;;;;;;2.30;2.20;;;12.40;99.90;;;;;;5088718;28;20746;-89
2023/09/30 05:08:28;;;;;;;2.38;2.28;;;12.50;99.90;;;;;;5084473;27;20039;-90
2023/09/30 05:10:57;;;;;;;2.63;2.53;;;12.30;99.90;;;;;;5080545;27;20117;-89
2023/09/30 05:13:26;;;;;;;2.35;2.25;;;12.50;99.90;;;;;;5089040;27;20180;-88
2023/09/30 05:15:52;;;;;;;2.38;2.28;;;12.30;99.90;;;;;;5086988;27;20511;-91
2023/09/30 05:18:18;;;;;;;2.58;2.47;;;12.50;99.90;;;;;;5097599;27;20430;-89
2023/09/30 05:20:44;;;;;;;2.30;2.20;;;12.30;99.90;;;;;;5086918;27;20050;-88
2023/09/30 05:23:12;;;;;;;2.42;2.33;;;12.30;99.90;;;;;;5085894;27;20062;-89
2023/09/30 05:25:42;;;;;;;2.58;2.47;;;12.20;99.90;;;;;;5081713;28;20047;-87
2023/09/30 05:28:09;;;;;;;2.92;2.72;;;12.20;99.90;;;;;;5095884;27;20048;-87
2023/09/30 05:30:35;;;;;;;2.80;2.60;;;12.30;99.90;;;;;;5094478;27;20039;-89
2023/09/30 05:33:01;;;;;;;2.70;2.55;;;12.20;99.90;;;;;;5084313;28;20047;-90
2023/09/30 05:35:28;;;;;;;2.47;2.38;;;12.10;99.90;;;;;;5097007;27;20418;-88
2023/09/30 05:37:54;;;;;;;2.42;2.33;;;12.00;99.90;;;;;;5087314;28;20510;-91
2023/09/30 05:40:26;;;;;;;2.55;2.45;;;12.10;99.90;;;;;;5092154;27;20040;-90
2023/09/30 05:42:59;;;;;;;2.92;2.72;;;12.20;99.90;;;;;;5090018;28;20059;-88
2023/09/30 05:45:26;;;;;;;2.50;2.40;;;12.00;99.90;;;;;;5086123;27;20039;-92
2023/09/30 05:47:53;;;;;;;2.40;2.30;;;12.00;99.90;;;;;;5084817;28;20043;-88
2023/09/30 05:50:24;;;;;;;2.55;2.45;;;12.20;99.90;;;;;;5078164;28;20048;-88
2023/09/30 05:52:55;;;;;;;2.65;2.53;;;12.10;99.90;;;;;;5096288;27;20139;-88
2023/09/30 05:55:22;;;;;;;2.40;2.30;;;12.10;99.90;;;;;;5081089;27;20051;-90
2023/09/30 05:57:52;;;;;;;2.45;2.35;;;12.10;99.90;;;;;;5081821;28;20126;-91
2023/09/30 06:00:30;;;;;;;2.40;2.30;;;11.90;99.90;;;;;;5082506;28;20043;-90
2023/09/30 06:02:57;;;;;;;2.70;2.55;;;12.20;99.90;;;;;;5088104;27;20716;-90
2023/09/30 06:05:23;;;;;;;2.42;2.33;;;12.20;99.90;;;;;;5085166;28;20055;-88
2023/09/30 06:07:52;;;;;;;2.53;2.42;;;12.40;99.90;;;;;;5086976;28;20071;-91
2023/09/30 06:10:27;;;;;;;2.45;2.35;;;12.30;99.90;;;;;;5086880;28;20180;-94
2023/09/30 06:12:59;;;;;;;2.67;2.53;;;12.40;99.90;;;;;;5095575;27;20066;-92
2023/09/30 06:15:28;;;;;;;2.45;2.35;;;12.60;99.90;;;;;;5083657;28;20134;-89
2023/09/30 06:18:06;;;;;;;2.70;2.58;;;12.60;99.90;;;;;;5103115;27;20047;-93
2023/09/30 06:20:33;;;;;;;2.55;2.45;;;12.60;99.90;;;;;;5082450;28;20458;-89
2023/09/30 06:23:03;;;;;;;2.53;2.42;;;12.50;99.90;;;;;;5080752;28;20691;-89
2023/09/30 06:25:30;;;;;;;2.55;2.45;;;12.70;99.90;;;;;;5101365;28;20101;-83
2023/09/30 06:27:56;;;;;;;2.50;2.40;;;12.80;99.90;;;;;;5101980;28;20813;-90
2023/09/30 06:30:29;;;;;;;2.40;2.30;;;12.90;99.90;;;;;;5095197;28;20075;-87
2023/09/30 06:32:55;;;;;;;2.40;2.30;;;13.00;99.90;;;;;;5079344;28;20040;-87
2023/09/30 06:35:22;;;;;;;2.25;2.15;;;12.80;99.90;;;;;;5084281;28;20097;-91
2023/09/30 06:37:52;;;;;;;2.22;2.13;;;12.80;99.90;;;;;;5098301;28;20565;-86
2023/09/30 06:40:20;;;;;;;2.15;2.05;;;12.90;99.90;;;;;;5079730;28;20043;-89
2023/09/30 06:42:46;;;;;;;2.15;2.05;;;13.10;99.90;;;;;;5095494;28;20039;-88
2023/09/30 06:45:12;;;;;;;2.17;2.08;;;13.20;99.90;;;;;;5095927;28;20051;-88
2023/09/30 06:47:41;;;;;;;2.10;2.00;;;13.20;99.90;;;;;;5094176;28;20095;-88
2023/09/30 06:50:16;;;;;;;2.15;2.05;;;13.20;99.90;;;;;;5086263;28;20067;-88
2023/09/30 06:52:45;;;;;;;2.08;1.98;;;13.50;99.90;;;;;;5078315;28;20040;-91
2023/09/30 06:55:13;;;;;;;2.08;1.98;;;13.40;99.90;;;;;;5079721;28;20139;-88
2023/09/30 06:57:42;;;;;;;2.20;2.10;;;13.50;99.90;;;;;;5085575;28;20051;-91
2023/09/30 07:00:13;;;;;;;1.90;1.80;;;13.60;99.90;;;;;;5101353;28;20138;-90
2023/09/30 07:02:40;;;;;;;1.98;1.88;;;13.60;99.90;;;;;;5102028;28;20046;-89
2023/09/30 07:05:14;;;;;;;2.08;1.98;;;13.80;99.90;;;;;;5087338;28;20067;-85
2023/09/30 07:07:43;;;;;;;1.90;1.80;;;14.00;99.90;;;;;;5101672;28;20098;-91
2023/09/30 07:10:11;;;;;;;2.05;1.95;;;14.00;99.90;;;;;;5081902;28;20451;-91
2023/09/30 07:12:36;;;;;;;1.90;1.80;;;14.10;99.90;;;;;;5086955;28;20849;-88
2023/09/30 07:15:03;;;;;;;2.10;2.00;;;14.30;99.90;;;;;;5093580;28;20036;-89
2023/09/30 07:17:29;;;;;;;2.13;2.03;;;14.20;99.90;;;;;;5086750;28;20502;-93
2023/09/30 07:19:55;;;;;;;2.00;1.90;;;14.50;99.90;;;;;;5086692;28;20039;-88
2023/09/30 07:22:21;;;;;;;2.03;1.92;;;14.60;99.90;;;;;;5086887;28;20047;-90
2023/09/30 07:24:49;;;;;;;2.13;2.03;;;14.70;99.90;;;;;;5088731;28;20042;-94
2023/09/30 07:27:16;;;;;;;2.17;2.08;;;14.70;99.90;;;;;;5091708;28;20036;-91
2023/09/30 07:29:43;;;;;;;2.28;2.17;;;14.80;99.90;;;;;;5086454;28;20044;-92
2023/09/30 07:32:09;;;;;;;2.38;2.28;;;14.90;99.90;;;;;;5101610;27;20063;-92
2023/09/30 07:34:35;;;;;;;2.42;2.33;;;15.00;99.90;;;;;;5099115;27;20072;-91
2023/09/30 07:37:01;;;;;;;2.40;2.30;;;15.10;99.90;;;;;;5094836;27;20070;-92
2023/09/30 07:39:26;;;;;;;2.47;2.38;;;15.20;99.90;;;;;;5088976;27;20074;-89
2023/09/30 07:41:52;;;;;;;2.50;2.40;;;15.20;99.90;;;;;;5114454;27;20083;-88
2023/09/30 07:44:18;;;;;;;2.47;2.38;;;15.30;99.90;;;;;;5108389;27;20045;-90
2023/09/30 07:46:44;;;;;;;2.40;2.30;;;15.50;99.90;;;;;;5092340;27;20087;-89
2023/09/30 07:49:13;;;;;;;2.25;2.15;;;15.80;99.90;;;;;;5086051;28;20043;-88
2023/09/30 07:51:53;;;;;;;2.35;2.25;;;15.70;99.90;;;;;;5098532;27;20051;-92
2023/09/30 07:54:22;;;;;;;2.45;2.35;;;15.90;99.90;;;;;;5079350;28;20036;-89
2023/09/30 07:56:48;;;;;;;2.55;2.45;;;16.10;99.90;;;;;;5074342;27;20032;-87
2023/09/30 07:59:15;;;;;;;2.50;2.40;;;16.30;99.90;;;;;;5110212;27;20040;-91
2023/09/30 08:01:41;;;;;;;2.40;2.30;;;16.20;99.90;;;;;;5086783;28;20120;-83
2023/09/30 08:04:07;;;;;;;2.75;2.60;;;16.00;99.90;;;;;;5095047;27;20040;-85
2023/09/30 08:06:33;;;;;;;2.35;2.25;;;16.20;99.90;;;;;;5100167;27;20481;-86
2023/09/30 08:08:59;;;;;;;2.40;2.30;;;16.20;99.90;;;;;;5074596;28;20051;-88
2023/09/30 08:11:30;;;;;;;2.42;2.33;;;16.40;99.90;;;;;;5086818;27;20408;-88
2023/09/30 08:13:56;;;;;;;2.58;2.47;;;16.70;99.90;;;;;;5091878;28;20082;-88
2023/09/30 08:16:25;;;;;;;2.50;2.30;;;16.90;99.90;;;;;;5089358;28;20501;-88
2023/09/30 08:18:57;;;;;;;2.30;2.20;;;17.10;99.90;;;;;;5089791;27;20047;-90
2023/09/30 08:21:22;;;;;;;2.28;2.17;;;17.40;99.90;;;;;;5097768;27;20035;-93
2023/09/30 08:24:00;;;;;;;2.38;2.28;;;17.60;99.90;;;;;;5094910;27;20039;-91
2023/09/30 08:26:25;;;;;;;2.10;2.00;;;17.60;99.90;;;;;;5090023;28;20134;-89
2023/09/30 08:28:51;;;;;;;2.05;1.95;;;17.40;99.90;;;;;;5107889;27;20138;-86
2023/09/30 08:31:21;;;;;;;2.15;2.05;;;17.30;99.90;;;;;;5098747;27;20044;-91
2023/09/30 08:33:47;;;;;;;2.10;2.00;;;17.60;99.90;;;;;;5086967;28;20078;-94
2023/09/30 08:36:13;;;;;;;2.22;2.13;;;17.50;99.90;;;;;;5087036;28;20063;-90
2023/09/30 08:38:41;;;;;;;2.15;2.05;;;17.30;99.90;;;;;;5087122;28;21835;-88
2023/09/30 08:41:07;;;;;;;2.25;2.15;;;17.00;99.90;;;;;;5092348;28;20046;-90
2023/09/30 08:43:40;;;;;;;2.30;2.20;;;16.90;99.90;;;;;;5089094;27;20510;-90
2023/09/30 08:46:07;;;;;;;2.30;2.20;;;16.90;99.90;;;;;;5086552;28;20039;-88
2023/09/30 08:48:34;;;;;;;2.13;2.03;;;16.80;99.90;;;;;;5086027;28;20062;-88
2023/09/30 08:51:01;;;;;;;2.05;1.95;;;16.70;99.90;;;;;;5083694;27;20047;-89
2023/09/30 08:53:29;;;;;;;2.25;2.15;;;16.60;99.90;;;;;;5099788;27;20050;-88
2023/09/30 08:55:56;;;;;;;2.15;2.05;;;16.60;99.90;;;;;;5100686;27;20641;-88
2023/09/30 08:58:25;;;;;;;2.08;1.98;;;16.50;99.90;;;;;;5116187;27;20086;-92
2023/09/30 09:00:51;;;;;;;2.15;2.05;;;16.80;99.90;;;;;;5104597;27;20067;-88
2023/09/30 09:03:19;;;;;;;2.58;2.42;;;16.70;99.90;;;;;;5106338;27;20453;-90
2023/09/30 09:05:45;;;;;;;2.30;2.20;;;16.70;99.90;;;;;;5084660;27;20035;-90
2023/09/30 09:08:11;;;;;;;2.30;2.20;;;16.50;99.90;;;;;;5091651;27;20051;-88
2023/09/30 09:10:57;;;;;;;2.22;2.13;;;16.50;99.90;;;;;;5095930;27;20042;-92
2023/09/30 09:13:26;;;;;;;2.00;1.90;;;16.50;99.90;;;;;;5081785;27;20098;-88
2023/09/30 09:16:08;;;;;;;2.08;1.98;;;16.50;99.90;;;;;;5086193;28;20051;-92
2023/09/30 09:18:48;;;;;;;2.10;2.00;;;16.60;99.90;;;;;;5102724;27;20050;-95
2023/09/30 09:21:22;;;;;;;2.40;2.30;;;17.00;99.90;;;;;;5088408;28;20035;-91
2023/09/30 09:23:53;;;;;;;2.33;2.22;;;17.20;99.90;;;;;;5086659;28;20044;-91
2023/09/30 09:26:34;;;;;;;2.53;2.42;;;17.40;99.90;;;;;;5108230;27;20400;-87
2023/09/30 09:29:03;;;;;;;2.42;2.33;;;17.70;99.90;;;;;;5085460;28;20036;-91
2023/09/30 09:31:36;;;;;;;2.30;2.20;;;17.90;99.90;;;;;;5090217;27;20050;-90
2023/09/30 09:34:13;;;;;;;2.20;2.10;;;18.00;99.90;;;;;;5090562;27;20039;-92
2023/09/30 09:36:46;;;;;;;2.38;2.28;;;18.30;99.90;;;;;;5085679;28;20039;-88
2023/09/30 09:39:16;;;;;;;2.10;2.00;;;18.50;99.90;;;;;;5114678;27;20047;-89
2023/09/30 09:41:57;;;;;;;1.90;1.80;;;18.70;99.90;;;;;;5082500;27;20099;-91
2023/09/30 09:44:25;;;;;;;1.80;1.70;;;18.90;99.90;;;;;;5090171;27;20054;-91
2023/09/30 09:46:51;;;;;;;1.92;1.83;;;19.00;99.90;;;;;;5103524;27;20075;-88
2023/09/30 09:49:18;;;;;;;1.67;1.58;;;19.30;99.90;;;;;;5084887;27;20043;-90
2023/09/30 09:51:46;;;;;;;1.30;1.30;;;19.50;99.90;;;;;;5100941;27;20121;-85
2023/09/30 09:54:13;;;;;;;1.20;1.20;;;19.40;99.90;;;;;;5083758;28;20043;-93
2023/09/30 09:56:39;;;;;;;1.35;1.33;;;19.20;99.90;;;;;;5093972;27;20043;-92
2023/09/30 09:59:06;;;;;;;1.10;1.10;;;19.40;99.90;;;;;;5097502;28;20046;-87
2023/09/30 10:01:36;;;;;;;1.00;1.00;;;19.50;99.90;;;;;;5113103;27;20053;-86
2023/09/30 10:04:02;;;;;;;1.10;1.10;;;19.70;99.90;;;;;;5108834;27;20051;-89
2023/09/30 10:06:28;;;;;;;1.10;1.10;;;19.90;99.90;;;;;;5113983;27;20054;-93
2023/09/30 10:08:57;;;;;;;1.02;1.02;;;19.90;99.90;;;;;;5100523;28;20040;-89
2023/09/30 10:11:29;;;;;;;0.90;0.90;;;20.00;99.90;;;;;;5098619;27;20071;-94
2023/09/30 10:14:00;;;;;;;0.98;0.98;;;19.90;99.90;;;;;;5098425;28;20036;-90
2023/09/30 10:16:38;;;;;;;0.93;0.93;;;20.00;99.90;;;;;;5103238;28;20031;-91
2023/09/30 10:19:08;;;;;;;0.90;0.90;;;20.30;99.90;;;;;;5100944;28;20043;-89
2023/09/30 10:21:34;;;;;;;0.80;0.80;;;20.10;99.90;;;;;;5100979;28;20055;-88
2023/09/30 10:24:29;;;;;;;0.77;0.77;;;20.20;99.90;;;;;;5112002;28;20054;-93
2023/09/30 10:27:34;;;;;;;0.70;0.70;;;20.50;99.90;;;;;;5088346;28;20043;-94
2023/09/30 10:30:14;;;;;;;0.70;0.70;;;20.60;99.90;;;;;;5101571;28;20062;-93
2023/09/30 10:33:07;;;;;;;0.70;0.70;;;20.90;99.90;;;;;;5072290;28;20672;-92
2023/09/30 10:35:33;;;;;;;0.60;0.60;;;20.90;99.90;;;;;;5056313;28;20044;-91
2023/09/30 10:38:24;;;;;;;0.60;0.60;;;21.00;99.90;;;;;;5070811;28;20036;-87
2023/09/30 10:40:51;;;;;;;0.63;0.63;;;21.00;99.90;;;;;;5086882;28;20050;-92
2023/09/30 10:43:33;;;;;;;0.60;0.60;;;20.90;99.90;;;;;;5069796;28;20065;-83
2023/09/30 10:46:27;;;;;;;0.60;0.60;;;21.10;99.90;;;;;;5078759;28;20280;-83
2023/09/30 10:48:53;;;;;;;;;;;21.10;99.90;;;;;;5089790;28;20348;-94
2023/09/30 10:51:25;;;;;;;0.65;0.65;;;21.20;99.90;;;;;;5067663;28;19927;-93
2023/09/30 10:54:00;;;;;;;0.65;0.65;;;21.10;99.90;;;;;;5073998;28;20036;-85
2023/09/30 10:56:33;;;;;;;0.60;0.60;;;21.20;99.90;;;;;;5062209;28;20085;-90
2023/09/30 10:59:02;;;;;;;0.63;0.63;;;21.30;99.90;;;;;;5068602;28;20051;-91
2023/09/30 11:01:33;;;;;;;0.68;0.68;;;21.30;99.90;;;;;;5069395;28;20048;-87
2023/09/30 11:04:05;;;;;;;0.60;0.60;;;21.50;99.90;;;;;;5060032;28;20044;-85
2023/09/30 11:06:32;;;;;;;0.60;0.60;;;21.50;99.90;;;;;;5066924;28;20052;-88
2023/09/30 11:09:00;;;;;;;0.60;0.60;;;21.70;99.90;;;;;;5087032;28;20074;-86
2023/09/30 11:11:43;;;;;;;0.60;0.60;;;21.60;99.90;;;;;;5068539;28;20047;-94
2023/09/30 11:14:30;;;;;;;0.50;0.50;;;21.50;99.90;;;;;;5077341;28;20069;-87
2023/09/30 11:17:01;;;;;;;0.60;0.60;;;22.00;99.90;;;;;;5070903;28;20449;-87
2023/09/30 11:19:35;;;;;;;0.55;0.55;;;22.00;99.90;;;;;;5073777;28;20062;-93
2023/09/30 11:22:03;;;;;;;0.60;0.60;;;22.30;99.90;;;;;;5076141;28;20035;-93
2023/09/30 11:24:29;;;;;;;0.60;0.60;;;22.10;99.90;;;;;;5090236;28;20082;-89
2023/09/30 11:27:07;;;;;;;0.60;0.60;;;22.00;99.90;;;;;;5076521;27;20036;-96
2023/09/30 11:29:48;;;;;;;0.60;0.60;;;21.80;99.90;;;;;;5068687;28;20168;-90
2023/09/30 11:32:26;;;;;;;0.60;0.60;;;21.30;99.90;;;;;;5072153;28;20050;-86
2023/09/30 11:34:53;;;;;;;0.60;0.60;;;21.30;99.90;;;;;;5074000;28;20070;-88
2023/09/30 11:37:18;;;;;;;0.60;0.60;;;21.70;99.90;;;;;;5087361;28;20046;-87
2023/09/30 11:39:44;;;;;;;0.50;0.50;;;21.60;99.90;;;;;;5070962;28;20043;-87
2023/09/30 11:42:19;;;;;;;0.60;0.60;;;22.00;99.90;;;;;;5066345;28;20039;-88
2023/09/30 11:44:49;;;;;;;0.60;0.60;;;22.40;99.90;;;;;;5067357;28;20039;-88
2023/09/30 11:47:16;;;;;;;0.60;0.60;;;22.60;99.90;;;;;;5082411;28;20221;-86
2023/09/30 11:49:48;;;;;;;0.50;0.50;;;22.80;99.90;;;;;;5070616;28;20575;-87
2023/09/30 11:52:16;;;;;;;0.60;0.60;;;23.10;99.90;;;;;;5088205;28;20045;-89
2023/09/30 11:54:44;;;;;;;0.50;0.50;;;22.10;99.90;;;;;;5069818;28;20051;-85
2023/09/30 11:57:18;;;;;;;0.60;0.60;;;21.70;99.90;;;;;;5090636;28;20048;-96
2023/09/30 11:59:45;;;;;;;0.50;0.50;;;21.30;99.90;;;;;;5069152;28;20051;-87
2023/09/30 12:02:12;;;;;;;0.60;0.60;;;21.10;99.90;;;;;;5065678;28;20048;-88
2023/09/30 12:04:38;;;;;;;0.60;0.60;;;20.90;99.90;;;;;;5068010;28;20570;-88
2023/09/30 12:07:06;;;;;;;0.60;0.60;;;20.80;99.90;;;;;;5067263;28;20450;-89
2023/09/30 12:09:35;;;;;;;0.60;0.60;;;21.20;99.90;;;;;;5086549;28;20130;-87
2023/09/30 12:12:00;;;;;;;0.50;0.50;;;21.40;99.90;;;;;;5070723;28;20108;-87
2023/09/30 12:14:29;;;;;;;0.55;0.55;;;22.10;99.90;;;;;;5068734;28;20039;-83
2023/09/30 12:16:55;;;;;;;0.50;0.50;;;22.30;99.90;;;;;;5106174;28;20050;-85
2023/09/30 12:19:21;;;;;;;0.50;0.50;;;22.80;99.90;;;;;;5086817;28;20059;-83
2023/09/30 12:21:48;;;;;;;0.50;0.50;;;23.10;99.90;;;;;;5084120;28;20057;-89
2023/09/30 12:24:24;;;;;;;0.50;0.50;;;23.20;99.90;;;;;;5086199;28;20050;-93
2023/09/30 12:26:55;;;;;;;0.52;0.52;;;22.80;99.90;;;;;;5076318;28;20525;-92
2023/09/30 12:29:23;;;;;;;0.50;0.50;;;22.60;99.90;;;;;;5088915;28;20043;-92
2023/09/30 12:31:50;;;;;;;0.60;0.60;;;22.70;99.90;;;;;;5109530;28;20385;-89
2023/09/30 12:34:16;;;;;;;0.70;0.70;;;22.20;99.90;;;;;;5075264;28;20040;-93
2023/09/30 12:36:43;;;;;;;0.60;0.60;;;22.30;99.90;;;;;;5091720;28;20039;-90
2023/09/30 12:39:11;;;;;;;0.60;0.60;;;22.50;99.90;;;;;;5069705;28;20075;-93
2023/09/30 12:41:40;;;;;;;0.50;0.50;;;22.30;99.90;;;;;;5083408;28;20118;-88
2023/09/30 12:44:10;;;;;;;0.50;0.50;;;22.50;99.90;;;;;;5084791;28;20130;-87
2023/09/30 12:46:36;;;;;;;0.60;0.60;;;22.60;99.90;;;;;;5084196;28;20130;-88
2023/09/30 12:49:08;;;;;;;0.57;0.57;;;22.30;99.90;;;;;;5087519;28;20040;-92
2023/09/30 12:51:34;;;;;;;0.55;0.55;;;21.80;99.90;;;;;;5068758;28;20063;-91
2023/09/30 12:54:00;;;;;;;0.50;0.50;;;21.20;99.90;;;;;;5069733;28;20044;-88
2023/09/30 12:56:35;;;;;;;0.52;0.52;;;21.50;99.90;;;;;;5082112;28;20100;-88